createdAt,value
2023-09-05T00:03:39.120Z,89.39
2023-09-05T00:06:46.005Z,89.52
2023-09-05T00:10:14.723Z,90.05
2023-09-05T00:14:26.359Z,90.31
2023-09-05T00:18:15.638Z,90.46
2023-09-05T00:25:36.177Z,90.96
2023-09-05T00:29:01.047Z,91.14
2023-09-05T00:37:21.440Z,91.64
2023-09-05T00:40:29.479Z,91.93
2023-09-05T00:45:27.702Z,92.46
2023-09-05T00:49:11.576Z,92.62
2023-09-05T00:52:32.950Z,92.73
2023-09-05T00:55:40.282Z,92.62
2023-09-05T00:59:15.874Z,92.92
2023-09-05T01:03:13.150Z,92.74
2023-09-05T01:07:28.272Z,92.76
2023-09-05T01:13:33.237Z,92.96
2023-09-05T01:17:08.417Z,93.04
2023-09-05T01:21:07.899Z,93.20
2023-09-05T01:24:24.514Z,93.12
2023-09-05T01:28:14.179Z,93.53
2023-09-05T01:35:09.150Z,94.01
2023-09-05T01:42:38.877Z,93.96
2023-09-05T01:46:21.253Z,93.69
2023-09-05T01:50:47.628Z,93.64
2023-09-05T01:53:49.452Z,93.78
2023-09-05T01:57:41.587Z,94.24
2023-09-05T02:01:42.833Z,94.15
2023-09-05T02:05:17.580Z,93.99
2023-09-05T02:09:19.552Z,94.34
2023-09-05T02:12:50.552Z,95.03
2023-09-05T02:19:42.883Z,96.12
2023-09-05T02:22:11.065Z,96.64
2023-09-05T02:25:26.322Z,96.51
2023-09-05T02:28:24.925Z,96.64
2023-09-05T02:31:18.592Z,96.14
2023-09-05T02:35:52.902Z,95.79
2023-09-05T02:39:17.104Z,95.85
2023-09-05T02:41:47.612Z,96.24
2023-09-05T02:44:15.874Z,96.29
2023-09-05T02:46:50.476Z,95.98
2023-09-05T02:49:20.706Z,95.73
2023-09-05T02:54:45.554Z,95.98
2023-09-05T02:58:30.114Z,96.43
2023-09-05T03:02:08.394Z,96.95
2023-09-05T03:05:23.632Z,97.21
2023-09-05T03:08:38.323Z,98.01
2023-09-05T03:12:25.236Z,97.79
2023-09-05T03:16:18.646Z,97.83
2023-09-05T03:29:52.783Z,96.25
2023-09-05T03:32:24.063Z,95.81
2023-09-05T03:34:53.172Z,95.75
2023-09-05T03:37:21.986Z,95.51
2023-09-05T03:39:51.854Z,95.19
2023-09-05T03:42:23.276Z,94.49
2023-09-05T03:44:55.087Z,94.70
2023-09-05T03:50:56.569Z,95.55
2023-09-05T03:53:25.437Z,95.28
2023-09-05T03:55:54.325Z,95.40
2023-09-05T03:58:24.876Z,95.34
2023-09-05T04:00:57.498Z,95.28
2023-09-05T04:03:27.190Z,95.09
2023-09-05T04:06:01.504Z,95.08
2023-09-05T04:08:29.674Z,95.16
2023-09-05T04:14:41.152Z,95.39
2023-09-05T04:17:13.298Z,95.48
2023-09-05T04:19:41.412Z,95.35
2023-09-05T04:22:09.435Z,95.28
2023-09-05T04:24:38.783Z,95.14
2023-09-05T04:30:18.795Z,95.39
2023-09-05T04:32:49.977Z,95.40
2023-09-05T04:36:04.037Z,95.71
2023-09-05T04:38:32.281Z,95.58
2023-09-05T04:41:05.810Z,95.31
2023-09-05T05:39:23.202Z,87.86
2023-09-05T05:41:51.377Z,86.67
2023-09-05T05:44:19.650Z,83.82
2023-09-05T05:46:49.300Z,83.58
2023-09-05T05:49:17.695Z,82.25
2023-09-05T05:52:44.395Z,80.40
2023-09-05T05:55:12.744Z,79.11
2023-09-05T05:57:40.833Z,78.35
2023-09-05T06:00:09.636Z,78.93
2023-09-05T06:02:37.542Z,78.53
2023-09-05T06:05:07.489Z,79.56
2023-09-05T06:07:35.489Z,79.84
2023-09-05T06:10:03.546Z,78.92
2023-09-05T06:12:36.864Z,77.88
2023-09-05T06:15:05.230Z,78.07
2023-09-05T06:17:41.962Z,78.14
2023-09-05T06:20:15.573Z,76.95
2023-09-05T06:22:45.958Z,77.51
2023-09-05T06:25:14.847Z,77.62
2023-09-05T06:27:44.589Z,77.09
2023-09-05T06:30:15.100Z,78.46
2023-09-05T06:32:44.492Z,78.45
2023-09-05T06:35:12.680Z,78.72
2023-09-05T06:37:43.521Z,78.61
2023-09-05T06:40:21.363Z,78.53
2023-09-05T06:43:22.005Z,78.84
2023-09-05T06:45:54.723Z,78.68
2023-09-05T06:48:22.981Z,77.82
2023-09-05T06:50:56.753Z,77.49
2023-09-05T06:53:24.897Z,77.18
2023-09-05T06:55:53.305Z,76.28
2023-09-05T06:58:25.064Z,73.40
2023-09-05T07:00:57.658Z,73.48
2023-09-05T07:03:27.041Z,73.97
2023-09-05T07:06:05.680Z,72.98
2023-09-05T07:08:37.958Z,72.07
2023-09-05T07:11:10.507Z,70.58
2023-09-05T07:13:38.767Z,71.24
2023-09-05T07:16:13.747Z,70.84
2023-09-05T07:18:46.044Z,69.55
2023-09-05T07:21:20.059Z,69.26
2023-09-05T07:23:50.703Z,68.26
2023-09-05T07:26:22.887Z,67.92
2023-09-05T07:28:54.537Z,66.88
2023-09-05T07:31:42.163Z,65.31
2023-09-05T07:34:13.705Z,64.79
2023-09-05T07:36:49.026Z,65.10
2023-09-05T07:39:43.608Z,60.04
2023-09-05T07:42:33.855Z,57.44
2023-09-05T07:45:26.439Z,56.27
2023-09-05T07:47:57.425Z,55.58
2023-09-05T07:53:27.284Z,53.28
2023-09-05T07:56:18.746Z,52.34
2023-09-05T07:59:20.718Z,52.55
2023-09-05T08:02:35.103Z,51.29
2023-09-05T08:09:09.514Z,48.52
2023-09-05T08:12:28.477Z,48.20
2023-09-05T08:15:27.699Z,46.61
2023-09-05T08:23:13.783Z,46.36
2023-09-05T08:26:05.983Z,46.49
2023-09-05T08:28:34.874Z,45.86
2023-09-05T08:31:23.061Z,42.62
2023-09-05T08:33:52.214Z,42.63
2023-09-05T08:36:20.354Z,40.80
2023-09-05T08:38:48.457Z,40.25
2023-09-05T08:41:35.942Z,39.72
2023-09-05T08:44:06.828Z,38.69
2023-09-05T08:46:44.360Z,37.86
2023-09-05T08:49:12.609Z,37.83
2023-09-05T08:51:45.956Z,37.64
2023-09-05T08:54:18.073Z,37.20
2023-09-05T08:56:46.205Z,36.67
2023-09-05T08:59:17.139Z,35.56
2023-09-05T09:01:45.565Z,35.36
2023-09-05T09:04:15.700Z,36.02
2023-09-05T09:06:47.967Z,36.12
2023-09-05T09:09:37.098Z,36.30
2023-09-05T09:12:14.701Z,35.44
2023-09-05T09:14:45.176Z,34.94
2023-09-05T09:17:13.733Z,34.44
2023-09-05T09:19:41.992Z,34.80
2023-09-05T09:22:10.844Z,34.75
2023-09-05T09:24:40.644Z,34.20
2023-09-05T09:27:30.796Z,34.21
2023-09-05T09:30:19.918Z,33.56
2023-09-05T09:36:40.074Z,32.91
2023-09-05T09:39:14.434Z,32.73
2023-09-05T09:41:49.457Z,33.79
2023-09-05T09:44:35.381Z,32.62
2023-09-05T09:47:07.833Z,32.53
2023-09-05T09:49:46.831Z,32.16
2023-09-05T09:52:17.581Z,31.91
2023-09-05T09:55:09.332Z,32.20
2023-09-05T09:57:57.431Z,30.63
2023-09-05T10:00:52.259Z,31.02
2023-09-05T10:03:42.419Z,30.67
2023-09-05T10:06:32.582Z,30.79
2023-09-05T10:09:03.712Z,29.89
2023-09-05T10:11:35.537Z,28.57
2023-09-05T10:14:07.721Z,28.69
2023-09-05T10:16:58.476Z,28.86
2023-09-05T10:20:07.468Z,28.22
2023-09-05T10:22:55.218Z,28.27
2023-09-05T10:32:41.123Z,28.77
2023-09-05T10:35:10.400Z,28.23
2023-09-05T10:38:20.771Z,28.55
2023-09-05T10:40:51.737Z,28.19
2023-09-05T10:44:12.127Z,27.60
2023-09-05T10:46:41.662Z,27.17
2023-09-05T10:49:17.334Z,26.47
2023-09-05T10:52:22.796Z,26.85
2023-09-05T10:54:53.335Z,26.77
2023-09-05T10:57:52.153Z,26.86
2023-09-05T11:00:22.418Z,26.77
2023-09-05T11:02:55.034Z,26.38
2023-09-05T11:08:30.869Z,26.60
2023-09-05T11:11:24.219Z,26.47
2023-09-05T11:13:55.159Z,25.98
2023-09-05T11:16:48.332Z,27.03
2023-09-05T11:19:54.737Z,28.24
2023-09-05T11:22:35.325Z,27.74
2023-09-05T11:28:53.996Z,26.82
2023-09-05T11:31:23.597Z,26.49
2023-09-05T11:34:36.044Z,26.16
2023-09-05T11:37:05.389Z,26.38
2023-09-05T11:39:36.885Z,25.68
2023-09-05T11:45:23.357Z,26.99
2023-09-05T11:48:16.442Z,25.62
2023-09-05T11:51:25.198Z,25.60
2023-09-05T11:53:54.579Z,26.65
2023-09-05T11:56:28.579Z,26.27
2023-09-05T11:59:33.554Z,25.92
2023-09-05T12:02:47.486Z,25.70
2023-09-05T12:06:13.408Z,24.92
2023-09-05T12:15:42.227Z,23.67
2023-09-05T12:18:48.725Z,22.38
2023-09-05T12:22:06.533Z,22.72
2023-09-05T12:25:42.779Z,22.92
2023-09-05T12:32:44.420Z,23.65
2023-09-05T12:35:18.321Z,24.29
2023-09-05T12:41:29.297Z,23.28
2023-09-05T12:44:55.804Z,22.85
2023-09-05T12:55:18.719Z,22.97
2023-09-05T12:58:53.757Z,22.88
2023-09-05T13:01:56.499Z,23.35
2023-09-05T13:04:31.517Z,23.39
2023-09-05T13:07:02.365Z,22.79
2023-09-05T13:09:55.928Z,22.33
2023-09-05T13:15:50.708Z,23.14
2023-09-05T13:19:10.552Z,23.13
2023-09-05T13:21:40.486Z,22.74
2023-09-05T13:24:55.171Z,23.05
2023-09-05T13:27:31.271Z,22.71
2023-09-05T13:36:59.005Z,21.70
2023-09-05T13:45:57.527Z,23.70
2023-09-05T13:49:03.641Z,23.97
2023-09-05T13:52:16.156Z,24.20
2023-09-05T13:55:25.746Z,23.22
2023-09-05T13:58:56.654Z,23.34
2023-09-05T14:02:02.052Z,23.84
2023-09-05T14:10:45.605Z,22.33
2023-09-05T14:17:48.387Z,22.25
2023-09-05T14:25:40.322Z,22.69
2023-09-05T14:28:31.087Z,22.83
2023-09-05T14:43:13.325Z,23.17
2023-09-05T14:46:14.955Z,23.42
2023-09-05T14:53:24.514Z,23.63
2023-09-05T14:56:54.829Z,24.95
2023-09-05T15:00:34.714Z,24.03
2023-09-05T15:03:08.238Z,23.54
2023-09-05T15:05:59.325Z,23.05
2023-09-05T15:09:01.501Z,23.08
2023-09-05T15:12:29.341Z,22.70
2023-09-05T15:16:10.741Z,22.15
2023-09-05T15:19:35.887Z,22.48
2023-09-05T15:22:23.939Z,23.42
2023-09-05T15:25:16.684Z,23.70
2023-09-05T15:31:26.138Z,23.91
2023-09-05T15:34:28.320Z,23.61
2023-09-05T15:37:35.366Z,24.42
2023-09-05T15:40:27.952Z,24.57
2023-09-05T15:46:33.653Z,24.25
2023-09-05T15:54:41.483Z,25.57
2023-09-05T15:58:49.393Z,25.40
2023-09-05T16:02:14.716Z,25.46
2023-09-05T16:06:01.964Z,25.81
2023-09-05T16:09:46.074Z,27.86
2023-09-05T16:13:20.303Z,28.48
2023-09-05T16:16:29.690Z,29.42
2023-09-05T16:19:58.583Z,30.09
2023-09-05T16:24:11.751Z,30.82
2023-09-05T16:27:30.427Z,32.04
2023-09-05T16:30:21.717Z,33.08
2023-09-05T16:33:48.038Z,33.96
2023-09-05T16:37:39.191Z,35.06
2023-09-05T16:41:58.759Z,34.32
2023-09-05T16:45:08.507Z,35.90
2023-09-05T16:56:37.337Z,41.11
2023-09-05T17:13:51.478Z,45.84
2023-09-05T17:27:54.035Z,48.59
2023-09-05T17:31:49.616Z,49.59
2023-09-05T17:39:43.473Z,51.02
2023-09-05T17:44:48.920Z,52.07
2023-09-05T17:48:45.294Z,52.41
2023-09-05T17:56:24.454Z,53.53
2023-09-05T18:00:19.244Z,53.25
2023-09-05T18:17:49.438Z,55.39
2023-09-05T18:29:57.836Z,57.47
2023-09-05T18:44:27.829Z,58.08
2023-09-05T19:02:17.704Z,60.61
2023-09-05T19:21:13.031Z,62.71
2023-09-05T19:23:59.054Z,63.29
2023-09-05T19:27:45.793Z,63.80
2023-09-05T19:31:19.203Z,64.37
2023-09-05T19:35:00.368Z,65.25
2023-09-05T19:38:46.511Z,65.50
2023-09-05T19:42:29.069Z,66.21
2023-09-05T19:46:50.636Z,66.89
2023-09-05T19:50:53.879Z,67.04
